sensor_id;sensor_type;location;lat;lon;timestamp;temperature;humidity
27741;DHT22;15134;48.768;9.184;2023-04-24T00:00:06;12.50;99.90
27741;DHT22;15134;48.768;9.184;2023-04-24T00:02:32;12.60;99.90
27741;DHT22;15134;48.768;9.184;2023-04-24T00:04:58;12.50;99.90
27741;DHT22;15134;48.768;9.184;2023-04-24T00:07:29;12.60;99.90
27741;DHT22;15134;48.768;9.184;2023-04-24T00:09:55;12.60;99.90
27741;DHT22;15134;48.768;9.184;2023-04-24T00:12:20;12.60;99.90
27741;DHT22;15134;48.768;9.184;2023-04-24T00:14:46;12.60;99.90
27741;DHT22;15134;48.768;9.184;2023-04-24T00:17:12;12.60;99.90
27741;DHT22;15134;48.768;9.184;2023-04-24T00:19:38;12.60;99.90
27741;DHT22;15134;48.768;9.184;2023-04-24T00:22:04;12.50;99.90
27741;DHT22;15134;48.768;9.184;2023-04-24T00:24:31;12.50;99.90
27741;DHT22;15134;48.768;9.184;2023-04-24T00:26:56;12.50;99.90
27741;DHT22;15134;48.768;9.184;2023-04-24T00:29:22;12.40;99.90
27741;DHT22;15134;48.768;9.184;2023-04-24T00:31:48;12.50;99.90
27741;DHT22;15134;48.768;9.184;2023-04-24T00:34:14;12.50;99.90
27741;DHT22;15134;48.768;9.184;2023-04-24T00:36:40;12.60;99.90
27741;DHT22;15134;48.768;9.184;2023-04-24T00:39:06;12.60;99.90
27741;DHT22;15134;48.768;9.184;2023-04-24T00:41:34;12.60;99.90
27741;DHT22;15134;48.768;9.184;2023-04-24T00:44:00;12.60;99.90
27741;DHT22;15134;48.768;9.184;2023-04-24T00:46:26;12.60;99.90
27741;DHT22;15134;48.768;9.184;2023-04-24T00:48:52;12.70;99.90
27741;DHT22;15134;48.768;9.184;2023-04-24T00:51:18;12.70;99.90
27741;DHT22;15134;48.768;9.184;2023-04-24T00:53:43;12.70;99.90
27741;DHT22;15134;48.768;9.184;2023-04-24T00:56:10;12.70;99.90
27741;DHT22;15134;48.768;9.184;2023-04-24T00:58:39;12.70;99.90
27741;DHT22;15134;48.768;9.184;2023-04-24T01:01:10;12.70;99.90
27741;DHT22;15134;48.768;9.184;2023-04-24T01:03:37;12.70;99.90
27741;DHT22;15134;48.768;9.184;2023-04-24T01:06:04;12.80;99.90
27741;DHT22;15134;48.768;9.184;2023-04-24T01:08:30;12.80;99.90
27741;DHT22;15134;48.768;9.184;2023-04-24T01:10:57;12.80;99.90
27741;DHT22;15134;48.768;9.184;2023-04-24T01:13:23;12.80;99.90
27741;DHT22;15134;48.768;9.184;2023-04-24T01:15:49;12.70;99.90
27741;DHT22;15134;48.768;9.184;2023-04-24T01:18:15;12.70;99.90
27741;DHT22;15134;48.768;9.184;2023-04-24T01:20:42;12.70;99.90
27741;DHT22;15134;48.768;9.184;2023-04-24T01:23:10;12.70;99.90
27741;DHT22;15134;48.768;9.184;2023-04-24T01:25:36;12.70;99.90
27741;DHT22;15134;48.768;9.184;2023-04-24T01:28:02;12.70;99.90
27741;DHT22;15134;48.768;9.184;2023-04-24T01:30:29;12.80;99.90
27741;DHT22;15134;48.768;9.184;2023-04-24T01:32:57;12.80;99.90
27741;DHT22;15134;48.768;9.184;2023-04-24T01:35:24;12.80;99.90
27741;DHT22;15134;48.768;9.184;2023-04-24T01:37:50;12.80;99.90
27741;DHT22;15134;48.768;9.184;2023-04-24T01:40:16;12.80;99.90
27741;DHT22;15134;48.768;9.184;2023-04-24T01:42:42;12.80;99.90
27741;DHT22;15134;48.768;9.184;2023-04-24T01:45:10;12.70;99.90
27741;DHT22;15134;48.768;9.184;2023-04-24T01:47:36;12.80;99.90
27741;DHT22;15134;48.768;9.184;2023-04-24T01:50:04;12.70;99.90
27741;DHT22;15134;48.768;9.184;2023-04-24T01:52:31;12.70;99.90
27741;DHT22;15134;48.768;9.184;2023-04-24T01:55:02;12.60;99.90
27741;DHT22;15134;48.768;9.184;2023-04-24T01:57:30;12.60;99.90
27741;DHT22;15134;48.768;9.184;2023-04-24T01:59:56;12.60;99.90
27741;DHT22;15134;48.768;9.184;2023-04-24T02:02:22;12.50;99.90
27741;DHT22;15134;48.768;9.184;2023-04-24T02:04:50;12.50;99.90
27741;DHT22;15134;48.768;9.184;2023-04-24T02:07:16;12.50;99.90
27741;DHT22;15134;48.768;9.184;2023-04-24T02:09:42;12.40;99.90
27741;DHT22;15134;48.768;9.184;2023-04-24T02:12:08;12.40;99.90
27741;DHT22;15134;48.768;9.184;2023-04-24T02:14:33;12.50;99.90
27741;DHT22;15134;48.768;9.184;2023-04-24T02:16:59;12.40;99.90
27741;DHT22;15134;48.768;9.184;2023-04-24T02:19:26;12.40;99.90
27741;DHT22;15134;48.768;9.184;2023-04-24T02:21:52;12.40;99.90
27741;DHT22;15134;48.768;9.184;2023-04-24T02:24:18;12.30;99.90
27741;DHT22;15134;48.768;9.184;2023-04-24T02:26:43;12.30;99.90
27741;DHT22;15134;48.768;9.184;2023-04-24T02:29:09;12.30;99.90
27741;DHT22;15134;48.768;9.184;2023-04-24T02:31:35;12.30;99.90
27741;DHT22;15134;48.768;9.184;2023-04-24T02:34:00;12.30;99.90
27741;DHT22;15134;48.768;9.184;2023-04-24T02:36:26;12.20;99.90
27741;DHT22;15134;48.768;9.184;2023-04-24T02:38:52;12.20;99.90
27741;DHT22;15134;48.768;9.184;2023-04-24T02:41:18;12.20;99.90
27741;DHT22;15134;48.768;9.184;2023-04-24T02:43:43;12.20;99.90
27741;DHT22;15134;48.768;9.184;2023-04-24T02:46:09;12.30;99.90
27741;DHT22;15134;48.768;9.184;2023-04-24T02:48:35;12.30;99.90
27741;DHT22;15134;48.768;9.184;2023-04-24T02:51:01;12.30;99.90
27741;DHT22;15134;48.768;9.184;2023-04-24T02:53:27;12.30;99.90
27741;DHT22;15134;48.768;9.184;2023-04-24T02:55:55;12.40;99.90
27741;DHT22;15134;48.768;9.184;2023-04-24T02:58:21;12.40;99.90
27741;DHT22;15134;48.768;9.184;2023-04-24T03:00:46;12.40;99.90
27741;DHT22;15134;48.768;9.184;2023-04-24T03:03:14;12.40;99.90
27741;DHT22;15134;48.768;9.184;2023-04-24T03:05:40;12.40;99.90
27741;DHT22;15134;48.768;9.184;2023-04-24T03:08:06;12.30;99.90
27741;DHT22;15134;48.768;9.184;2023-04-24T03:10:32;12.20;99.90
27741;DHT22;15134;48.768;9.184;2023-04-24T03:12:58;12.20;99.90
27741;DHT22;15134;48.768;9.184;2023-04-24T03:15:23;12.20;99.90
27741;DHT22;15134;48.768;9.184;2023-04-24T03:17:49;12.10;99.90
27741;DHT22;15134;48.768;9.184;2023-04-24T03:20:15;12.10;99.90
27741;DHT22;15134;48.768;9.184;2023-04-24T03:22:42;12.10;99.90
27741;DHT22;15134;48.768;9.184;2023-04-24T03:25:08;12.10;99.90
27741;DHT22;15134;48.768;9.184;2023-04-24T03:27:34;12.10;99.90
27741;DHT22;15134;48.768;9.184;2023-04-24T03:30:05;12.10;99.90
27741;DHT22;15134;48.768;9.184;2023-04-24T03:32:40;12.00;99.90
27741;DHT22;15134;48.768;9.184;2023-04-24T03:35:08;12.00;99.90
27741;DHT22;15134;48.768;9.184;2023-04-24T03:37:34;11.90;99.90
27741;DHT22;15134;48.768;9.184;2023-04-24T03:40:18;11.90;99.90
27741;DHT22;15134;48.768;9.184;2023-04-24T03:42:44;12.00;99.90
27741;DHT22;15134;48.768;9.184;2023-04-24T03:45:10;12.00;99.90
27741;DHT22;15134;48.768;9.184;2023-04-24T03:47:39;12.00;99.90
27741;DHT22;15134;48.768;9.184;2023-04-24T03:50:05;11.90;99.90
27741;DHT22;15134;48.768;9.184;2023-04-24T03:52:32;11.90;99.90
27741;DHT22;15134;48.768;9.184;2023-04-24T03:54:58;11.80;99.90
27741;DHT22;15134;48.768;9.184;2023-04-24T03:57:25;11.80;99.90
27741;DHT22;15134;48.768;9.184;2023-04-24T04:00:11;11.80;99.90
27741;DHT22;15134;48.768;9.184;2023-04-24T04:02:40;11.70;99.90
27741;DHT22;15134;48.768;9.184;2023-04-24T04:05:07;11.70;99.90
27741;DHT22;15134;48.768;9.184;2023-04-24T04:07:33;11.60;99.90
27741;DHT22;15134;48.768;9.184;2023-04-24T04:09:59;11.70;99.90
27741;DHT22;15134;48.768;9.184;2023-04-24T04:12:25;11.60;99.90
27741;DHT22;15134;48.768;9.184;2023-04-24T04:14:51;11.70;99.90
27741;DHT22;15134;48.768;9.184;2023-04-24T04:17:17;11.70;99.90
27741;DHT22;15134;48.768;9.184;2023-04-24T04:19:43;11.70;99.90
27741;DHT22;15134;48.768;9.184;2023-04-24T04:22:09;11.70;99.90
27741;DHT22;15134;48.768;9.184;2023-04-24T04:24:44;11.80;99.90
27741;DHT22;15134;48.768;9.184;2023-04-24T04:27:10;11.80;99.90
27741;DHT22;15134;48.768;9.184;2023-04-24T04:29:49;11.80;99.90
27741;DHT22;15134;48.768;9.184;2023-04-24T04:32:15;11.90;99.90
27741;DHT22;15134;48.768;9.184;2023-04-24T04:34:42;11.90;99.90
27741;DHT22;15134;48.768;9.184;2023-04-24T04:37:10;11.80;99.90
27741;DHT22;15134;48.768;9.184;2023-04-24T04:39:53;11.80;99.90
27741;DHT22;15134;48.768;9.184;2023-04-24T04:42:22;11.60;99.90
27741;DHT22;15134;48.768;9.184;2023-04-24T04:44:49;11.60;99.90
27741;DHT22;15134;48.768;9.184;2023-04-24T04:47:21;11.70;99.90
27741;DHT22;15134;48.768;9.184;2023-04-24T04:49:50;11.60;99.90
27741;DHT22;15134;48.768;9.184;2023-04-24T04:52:22;11.40;99.90
27741;DHT22;15134;48.768;9.184;2023-04-24T04:54:55;11.40;99.90
27741;DHT22;15134;48.768;9.184;2023-04-24T04:57:23;11.50;99.90
27741;DHT22;15134;48.768;9.184;2023-04-24T04:59:50;11.50;99.90
27741;DHT22;15134;48.768;9.184;2023-04-24T05:02:26;11.50;99.90
27741;DHT22;15134;48.768;9.184;2023-04-24T05:04:51;11.50;99.90
27741;DHT22;15134;48.768;9.184;2023-04-24T05:07:17;11.60;99.90
27741;DHT22;15134;48.768;9.184;2023-04-24T05:09:48;11.60;99.90
27741;DHT22;15134;48.768;9.184;2023-04-24T05:12:13;11.60;99.90
27741;DHT22;15134;48.768;9.184;2023-04-24T05:14:46;11.60;99.90
27741;DHT22;15134;48.768;9.184;2023-04-24T05:17:12;11.60;99.90
27741;DHT22;15134;48.768;9.184;2023-04-24T05:19:39;11.60;99.90
27741;DHT22;15134;48.768;9.184;2023-04-24T05:22:06;11.60;99.90
27741;DHT22;15134;48.768;9.184;2023-04-24T05:24:36;11.60;99.90
27741;DHT22;15134;48.768;9.184;2023-04-24T05:27:09;11.50;99.90
27741;DHT22;15134;48.768;9.184;2023-04-24T05:29:39;11.50;99.90
27741;DHT22;15134;48.768;9.184;2023-04-24T05:32:05;11.60;99.90
27741;DHT22;15134;48.768;9.184;2023-04-24T05:34:31;11.60;99.90
27741;DHT22;15134;48.768;9.184;2023-04-24T05:36:57;11.60;99.90
27741;DHT22;15134;48.768;9.184;2023-04-24T05:39:25;11.60;99.90
27741;DHT22;15134;48.768;9.184;2023-04-24T05:41:51;11.60;99.90
27741;DHT22;15134;48.768;9.184;2023-04-24T05:44:17;11.60;99.90
27741;DHT22;15134;48.768;9.184;2023-04-24T05:46:42;11.70;99.90
27741;DHT22;15134;48.768;9.184;2023-04-24T05:49:10;11.80;99.90
27741;DHT22;15134;48.768;9.184;2023-04-24T05:51:35;11.80;99.90
27741;DHT22;15134;48.768;9.184;2023-04-24T05:54:01;11.90;99.90
27741;DHT22;15134;48.768;9.184;2023-04-24T05:56:29;12.00;99.90
27741;DHT22;15134;48.768;9.184;2023-04-24T05:58:56;12.10;99.90
27741;DHT22;15134;48.768;9.184;2023-04-24T06:01:22;12.10;99.90
27741;DHT22;15134;48.768;9.184;2023-04-24T06:03:55;12.10;99.90
27741;DHT22;15134;48.768;9.184;2023-04-24T06:06:21;12.10;99.90
27741;DHT22;15134;48.768;9.184;2023-04-24T06:08:47;12.10;99.90
27741;DHT22;15134;48.768;9.184;2023-04-24T06:11:12;12.20;99.90
27741;DHT22;15134;48.768;9.184;2023-04-24T06:13:38;12.20;99.90
27741;DHT22;15134;48.768;9.184;2023-04-24T06:16:33;12.40;99.90
27741;DHT22;15134;48.768;9.184;2023-04-24T06:19:04;12.60;99.90
27741;DHT22;15134;48.768;9.184;2023-04-24T06:21:30;12.80;99.90
27741;DHT22;15134;48.768;9.184;2023-04-24T06:23:57;13.00;99.90
27741;DHT22;15134;48.768;9.184;2023-04-24T06:26:23;13.70;99.90
27741;DHT22;15134;48.768;9.184;2023-04-24T06:28:50;15.40;99.90
27741;DHT22;15134;48.768;9.184;2023-04-24T06:31:18;17.10;99.90
27741;DHT22;15134;48.768;9.184;2023-04-24T06:33:44;18.50;99.90
27741;DHT22;15134;48.768;9.184;2023-04-24T06:36:09;19.70;99.90
27741;DHT22;15134;48.768;9.184;2023-04-24T06:38:36;20.60;99.90
27741;DHT22;15134;48.768;9.184;2023-04-24T06:41:02;21.40;99.90
27741;DHT22;15134;48.768;9.184;2023-04-24T06:43:31;22.00;99.90
27741;DHT22;15134;48.768;9.184;2023-04-24T06:45:57;22.50;99.90
27741;DHT22;15134;48.768;9.184;2023-04-24T06:48:24;22.90;99.90
27741;DHT22;15134;48.768;9.184;2023-04-24T06:50:51;23.30;99.90
27741;DHT22;15134;48.768;9.184;2023-04-24T06:53:17;23.60;99.90
27741;DHT22;15134;48.768;9.184;2023-04-24T06:55:43;24.20;99.90
27741;DHT22;15134;48.768;9.184;2023-04-24T06:58:10;25.00;99.90
27741;DHT22;15134;48.768;9.184;2023-04-24T07:00:36;25.30;98.90
27741;DHT22;15134;48.768;9.184;2023-04-24T07:03:02;25.40;98.30
27741;DHT22;15134;48.768;9.184;2023-04-24T07:05:28;24.20;96.80
27741;DHT22;15134;48.768;9.184;2023-04-24T07:07:55;23.00;98.50
27741;DHT22;15134;48.768;9.184;2023-04-24T07:10:20;21.80;99.80
27741;DHT22;15134;48.768;9.184;2023-04-24T07:12:46;21.10;99.90
27741;DHT22;15134;48.768;9.184;2023-04-24T07:15:12;20.10;99.90
27741;DHT22;15134;48.768;9.184;2023-04-24T07:17:38;19.40;99.90
27741;DHT22;15134;48.768;9.184;2023-04-24T07:20:08;18.50;99.90
27741;DHT22;15134;48.768;9.184;2023-04-24T07:22:37;17.70;99.90
27741;DHT22;15134;48.768;9.184;2023-04-24T07:25:02;17.00;99.90
27741;DHT22;15134;48.768;9.184;2023-04-24T07:27:28;16.40;99.90
27741;DHT22;15134;48.768;9.184;2023-04-24T07:29:54;15.90;99.90
27741;DHT22;15134;48.768;9.184;2023-04-24T07:32:20;15.10;99.90
27741;DHT22;15134;48.768;9.184;2023-04-24T07:34:45;14.60;99.90
27741;DHT22;15134;48.768;9.184;2023-04-24T07:37:11;14.60;99.90
27741;DHT22;15134;48.768;9.184;2023-04-24T07:39:37;14.90;99.90
27741;DHT22;15134;48.768;9.184;2023-04-24T07:42:03;17.30;99.90
27741;DHT22;15134;48.768;9.184;2023-04-24T07:44:29;20.70;99.90
27741;DHT22;15134;48.768;9.184;2023-04-24T07:46:55;22.90;99.70
27741;DHT22;15134;48.768;9.184;2023-04-24T07:49:21;22.90;98.40
27741;DHT22;15134;48.768;9.184;2023-04-24T07:51:46;23.90;97.10
27741;DHT22;15134;48.768;9.184;2023-04-24T07:54:12;25.30;95.20
27741;DHT22;15134;48.768;9.184;2023-04-24T07:56:38;27.00;92.60
27741;DHT22;15134;48.768;9.184;2023-04-24T07:59:08;24.20;92.20
27741;DHT22;15134;48.768;9.184;2023-04-24T08:01:35;23.10;93.20
27741;DHT22;15134;48.768;9.184;2023-04-24T08:04:01;24.20;92.20
27741;DHT22;15134;48.768;9.184;2023-04-24T08:06:27;22.00;93.40
27741;DHT22;15134;48.768;9.184;2023-04-24T08:08:57;20.70;94.40
27741;DHT22;15134;48.768;9.184;2023-04-24T08:11:24;20.00;96.00
27741;DHT22;15134;48.768;9.184;2023-04-24T08:13:50;20.20;95.70
27741;DHT22;15134;48.768;9.184;2023-04-24T08:16:16;21.10;94.80
27741;DHT22;15134;48.768;9.184;2023-04-24T08:18:41;22.20;93.60
27741;DHT22;15134;48.768;9.184;2023-04-24T08:21:07;23.10;93.10
27741;DHT22;15134;48.768;9.184;2023-04-24T08:23:33;24.00;92.00
27741;DHT22;15134;48.768;9.184;2023-04-24T08:25:59;25.00;90.70
27741;DHT22;15134;48.768;9.184;2023-04-24T08:28:25;25.40;87.10
27741;DHT22;15134;48.768;9.184;2023-04-24T08:30:51;24.40;87.60
27741;DHT22;15134;48.768;9.184;2023-04-24T08:33:23;24.40;88.40
27741;DHT22;15134;48.768;9.184;2023-04-24T08:35:49;23.30;90.00
27741;DHT22;15134;48.768;9.184;2023-04-24T08:38:16;22.80;90.30
27741;DHT22;15134;48.768;9.184;2023-04-24T08:40:42;22.00;90.80
27741;DHT22;15134;48.768;9.184;2023-04-24T08:43:09;21.80;91.40
27741;DHT22;15134;48.768;9.184;2023-04-24T08:45:36;21.10;91.90
27741;DHT22;15134;48.768;9.184;2023-04-24T08:48:02;19.80;92.80
27741;DHT22;15134;48.768;9.184;2023-04-24T08:50:28;18.10;94.70
27741;DHT22;15134;48.768;9.184;2023-04-24T08:52:55;17.30;96.20
27741;DHT22;15134;48.768;9.184;2023-04-24T08:55:24;16.70;97.40
27741;DHT22;15134;48.768;9.184;2023-04-24T08:57:51;16.00;98.90
27741;DHT22;15134;48.768;9.184;2023-04-24T09:00:22;15.90;99.40
27741;DHT22;15134;48.768;9.184;2023-04-24T09:02:49;17.50;99.00
27741;DHT22;15134;48.768;9.184;2023-04-24T09:05:17;18.50;97.70
27741;DHT22;15134;48.768;9.184;2023-04-24T09:07:45;18.10;97.40
27741;DHT22;15134;48.768;9.184;2023-04-24T09:10:13;17.30;98.40
27741;DHT22;15134;48.768;9.184;2023-04-24T09:12:39;16.30;99.50
27741;DHT22;15134;48.768;9.184;2023-04-24T09:15:07;15.40;99.90
27741;DHT22;15134;48.768;9.184;2023-04-24T09:17:33;15.10;99.90
27741;DHT22;15134;48.768;9.184;2023-04-24T09:20:01;14.80;99.90
27741;DHT22;15134;48.768;9.184;2023-04-24T09:22:30;14.50;99.90
27741;DHT22;15134;48.768;9.184;2023-04-24T09:25:03;14.30;99.90
27741;DHT22;15134;48.768;9.184;2023-04-24T09:27:31;14.00;99.90
27741;DHT22;15134;48.768;9.184;2023-04-24T09:29:58;13.90;99.90
27741;DHT22;15134;48.768;9.184;2023-04-24T09:32:24;14.00;99.90
27741;DHT22;15134;48.768;9.184;2023-04-24T09:35:12;13.60;99.90
27741;DHT22;15134;48.768;9.184;2023-04-24T09:37:39;13.10;99.90
27741;DHT22;15134;48.768;9.184;2023-04-24T09:40:14;13.20;99.90
27741;DHT22;15134;48.768;9.184;2023-04-24T09:42:51;13.50;99.90
27741;DHT22;15134;48.768;9.184;2023-04-24T09:45:18;13.80;99.90
27741;DHT22;15134;48.768;9.184;2023-04-24T09:47:44;14.00;99.90
27741;DHT22;15134;48.768;9.184;2023-04-24T09:52:43;14.90;99.90
27741;DHT22;15134;48.768;9.184;2023-04-24T09:55:19;14.90;99.90
27741;DHT22;15134;48.768;9.184;2023-04-24T09:57:55;14.80;99.90
27741;DHT22;15134;48.768;9.184;2023-04-24T10:00:29;14.70;99.90
27741;DHT22;15134;48.768;9.184;2023-04-24T10:03:05;14.50;99.90
27741;DHT22;15134;48.768;9.184;2023-04-24T10:05:35;14.30;99.90
27741;DHT22;15134;48.768;9.184;2023-04-24T10:08:12;14.30;99.90
27741;DHT22;15134;48.768;9.184;2023-04-24T10:10:44;14.20;99.90
27741;DHT22;15134;48.768;9.184;2023-04-24T10:13:12;14.30;99.90
27741;DHT22;15134;48.768;9.184;2023-04-24T10:15:39;14.40;99.90
27741;DHT22;15134;48.768;9.184;2023-04-24T10:18:06;14.70;99.90
27741;DHT22;15134;48.768;9.184;2023-04-24T10:20:35;14.90;99.90
27741;DHT22;15134;48.768;9.184;2023-04-24T10:23:01;15.00;99.90
27741;DHT22;15134;48.768;9.184;2023-04-24T10:25:29;15.00;99.90
27741;DHT22;15134;48.768;9.184;2023-04-24T10:27:57;14.90;99.90
27741;DHT22;15134;48.768;9.184;2023-04-24T10:30:26;15.00;99.90
27741;DHT22;15134;48.768;9.184;2023-04-24T10:32:52;15.20;99.90
27741;DHT22;15134;48.768;9.184;2023-04-24T10:35:19;15.60;99.90
27741;DHT22;15134;48.768;9.184;2023-04-24T10:37:55;15.80;99.90
27741;DHT22;15134;48.768;9.184;2023-04-24T10:40:34;15.70;99.80
27741;DHT22;15134;48.768;9.184;2023-04-24T10:43:07;15.30;99.90
27741;DHT22;15134;48.768;9.184;2023-04-24T10:45:35;15.20;99.90
27741;DHT22;15134;48.768;9.184;2023-04-24T10:48:10;15.00;99.90
27741;DHT22;15134;48.768;9.184;2023-04-24T10:50:47;14.90;99.90
27741;DHT22;15134;48.768;9.184;2023-04-24T10:53:18;14.90;99.90
27741;DHT22;15134;48.768;9.184;2023-04-24T10:58:11;14.50;99.90
27741;DHT22;15134;48.768;9.184;2023-04-24T11:00:41;14.30;99.90
27741;DHT22;15134;48.768;9.184;2023-04-24T11:03:28;14.10;99.90
27741;DHT22;15134;48.768;9.184;2023-04-24T11:06:01;14.20;99.90
27741;DHT22;15134;48.768;9.184;2023-04-24T11:08:43;14.30;99.90
27741;DHT22;15134;48.768;9.184;2023-04-24T11:11:11;14.00;99.90
27741;DHT22;15134;48.768;9.184;2023-04-24T11:21:59;13.80;99.90
27741;DHT22;15134;48.768;9.184;2023-04-24T11:27:20;13.90;99.90
27741;DHT22;15134;48.768;9.184;2023-04-24T11:32:34;14.40;99.90
27741;DHT22;15134;48.768;9.184;2023-04-24T11:38:00;15.10;99.90
27741;DHT22;15134;48.768;9.184;2023-04-24T11:40:28;15.30;99.90
27741;DHT22;15134;48.768;9.184;2023-04-24T11:42:54;15.30;99.90
27741;DHT22;15134;48.768;9.184;2023-04-24T11:45:26;15.30;99.90
27741;DHT22;15134;48.768;9.184;2023-04-24T11:47:52;15.10;99.90
27741;DHT22;15134;48.768;9.184;2023-04-24T11:50:21;14.80;99.90
27741;DHT22;15134;48.768;9.184;2023-04-24T11:52:49;14.40;99.90
27741;DHT22;15134;48.768;9.184;2023-04-24T11:57:52;14.20;99.90
27741;DHT22;15134;48.768;9.184;2023-04-24T12:00:32;14.00;99.90
27741;DHT22;15134;48.768;9.184;2023-04-24T12:03:19;14.00;99.90
27741;DHT22;15134;48.768;9.184;2023-04-24T12:05:45;14.20;99.90
27741;DHT22;15134;48.768;9.184;2023-04-24T12:08:10;14.50;99.90
27741;DHT22;15134;48.768;9.184;2023-04-24T12:10:36;14.80;99.90
27741;DHT22;15134;48.768;9.184;2023-04-24T12:13:02;15.00;99.90
27741;DHT22;15134;48.768;9.184;2023-04-24T12:15:28;15.10;99.90
27741;DHT22;15134;48.768;9.184;2023-04-24T12:17:55;15.00;99.90
27741;DHT22;15134;48.768;9.184;2023-04-24T12:20:32;15.00;99.90
27741;DHT22;15134;48.768;9.184;2023-04-24T12:22:59;14.80;99.90
27741;DHT22;15134;48.768;9.184;2023-04-24T12:25:27;14.50;99.90
27741;DHT22;15134;48.768;9.184;2023-04-24T12:27:55;14.30;99.90
27741;DHT22;15134;48.768;9.184;2023-04-24T12:30:26;14.30;99.90
27741;DHT22;15134;48.768;9.184;2023-04-24T12:32:53;14.30;99.90
27741;DHT22;15134;48.768;9.184;2023-04-24T12:35:22;14.10;99.90
27741;DHT22;15134;48.768;9.184;2023-04-24T12:37:49;14.10;99.90
27741;DHT22;15134;48.768;9.184;2023-04-24T12:40:16;14.20;99.90
27741;DHT22;15134;48.768;9.184;2023-04-24T12:45:09;14.00;99.90
27741;DHT22;15134;48.768;9.184;2023-04-24T12:47:38;14.10;99.90
27741;DHT22;15134;48.768;9.184;2023-04-24T12:50:05;14.30;99.90
27741;DHT22;15134;48.768;9.184;2023-04-24T12:52:32;14.50;99.90
27741;DHT22;15134;48.768;9.184;2023-04-24T12:54:59;14.60;99.90
27741;DHT22;15134;48.768;9.184;2023-04-24T12:57:27;14.50;99.90
27741;DHT22;15134;48.768;9.184;2023-04-24T12:59:57;14.40;99.90
27741;DHT22;15134;48.768;9.184;2023-04-24T13:02:24;14.30;99.90
27741;DHT22;15134;48.768;9.184;2023-04-24T13:04:50;13.90;99.90
27741;DHT22;15134;48.768;9.184;2023-04-24T13:07:17;13.80;99.90
27741;DHT22;15134;48.768;9.184;2023-04-24T13:09:44;13.70;99.90
27741;DHT22;15134;48.768;9.184;2023-04-24T13:12:11;13.60;99.90
27741;DHT22;15134;48.768;9.184;2023-04-24T13:14:37;13.60;99.90
27741;DHT22;15134;48.768;9.184;2023-04-24T13:17:04;13.60;99.90
27741;DHT22;15134;48.768;9.184;2023-04-24T13:19:34;13.70;99.90
27741;DHT22;15134;48.768;9.184;2023-04-24T13:22:00;13.80;99.90
27741;DHT22;15134;48.768;9.184;2023-04-24T13:24:26;13.90;99.90
27741;DHT22;15134;48.768;9.184;2023-04-24T13:26:53;14.00;99.90
27741;DHT22;15134;48.768;9.184;2023-04-24T13:29:19;14.10;99.90
27741;DHT22;15134;48.768;9.184;2023-04-24T13:31:46;14.10;99.90
27741;DHT22;15134;48.768;9.184;2023-04-24T13:34:13;14.20;99.90
27741;DHT22;15134;48.768;9.184;2023-04-24T13:36:39;14.10;99.90
27741;DHT22;15134;48.768;9.184;2023-04-24T13:39:05;14.20;99.90
27741;DHT22;15134;48.768;9.184;2023-04-24T13:41:34;14.20;99.90
27741;DHT22;15134;48.768;9.184;2023-04-24T13:44:02;14.10;99.90
27741;DHT22;15134;48.768;9.184;2023-04-24T13:46:28;13.90;99.90
27741;DHT22;15134;48.768;9.184;2023-04-24T13:48:53;13.60;99.90
27741;DHT22;15134;48.768;9.184;2023-04-24T13:51:19;13.40;99.90
27741;DHT22;15134;48.768;9.184;2023-04-24T13:53:45;13.30;99.90
27741;DHT22;15134;48.768;9.184;2023-04-24T13:56:11;13.20;99.90
27741;DHT22;15134;48.768;9.184;2023-04-24T13:58:38;13.00;99.90
27741;DHT22;15134;48.768;9.184;2023-04-24T14:01:04;12.90;99.90
27741;DHT22;15134;48.768;9.184;2023-04-24T14:03:30;12.80;99.90
27741;DHT22;15134;48.768;9.184;2023-04-24T14:05:56;12.90;99.90
27741;DHT22;15134;48.768;9.184;2023-04-24T14:08:22;13.00;99.90
27741;DHT22;15134;48.768;9.184;2023-04-24T14:10:47;13.20;99.90
27741;DHT22;15134;48.768;9.184;2023-04-24T14:13:13;13.50;99.90
27741;DHT22;15134;48.768;9.184;2023-04-24T14:15:39;13.50;99.90
27741;DHT22;15134;48.768;9.184;2023-04-24T14:18:05;13.60;99.90
27741;DHT22;15134;48.768;9.184;2023-04-24T14:20:31;13.60;99.90
27741;DHT22;15134;48.768;9.184;2023-04-24T14:22:57;13.60;99.90
27741;DHT22;15134;48.768;9.184;2023-04-24T14:25:26;13.70;99.90
27741;DHT22;15134;48.768;9.184;2023-04-24T14:27:52;13.80;99.90
27741;DHT22;15134;48.768;9.184;2023-04-24T14:30:18;13.80;99.90
27741;DHT22;15134;48.768;9.184;2023-04-24T14:32:44;13.70;99.90
27741;DHT22;15134;48.768;9.184;2023-04-24T14:35:10;13.70;99.90
27741;DHT22;15134;48.768;9.184;2023-04-24T14:37:36;13.60;99.90
27741;DHT22;15134;48.768;9.184;2023-04-24T14:40:03;13.60;99.90
27741;DHT22;15134;48.768;9.184;2023-04-24T14:42:30;13.60;99.90
27741;DHT22;15134;48.768;9.184;2023-04-24T14:44:56;13.50;99.90
27741;DHT22;15134;48.768;9.184;2023-04-24T14:47:22;13.30;99.90
27741;DHT22;15134;48.768;9.184;2023-04-24T14:49:48;13.20;99.90
27741;DHT22;15134;48.768;9.184;2023-04-24T14:52:14;13.20;99.90
27741;DHT22;15134;48.768;9.184;2023-04-24T14:54:40;13.10;99.90
27741;DHT22;15134;48.768;9.184;2023-04-24T14:57:05;13.30;99.90
27741;DHT22;15134;48.768;9.184;2023-04-24T14:59:31;13.40;99.90
27741;DHT22;15134;48.768;9.184;2023-04-24T15:01:57;13.50;99.90
27741;DHT22;15134;48.768;9.184;2023-04-24T15:04:29;13.60;99.90
27741;DHT22;15134;48.768;9.184;2023-04-24T15:06:56;13.60;99.90
27741;DHT22;15134;48.768;9.184;2023-04-24T15:09:23;13.60;99.90
27741;DHT22;15134;48.768;9.184;2023-04-24T15:11:50;13.50;99.90
27741;DHT22;15134;48.768;9.184;2023-04-24T15:14:17;13.30;99.90
27741;DHT22;15134;48.768;9.184;2023-04-24T15:16:42;13.10;99.90
27741;DHT22;15134;48.768;9.184;2023-04-24T15:19:08;13.00;99.90
27741;DHT22;15134;48.768;9.184;2023-04-24T15:21:35;13.10;99.90
27741;DHT22;15134;48.768;9.184;2023-04-24T15:24:01;13.10;99.90
27741;DHT22;15134;48.768;9.184;2023-04-24T15:26:27;13.10;99.90
27741;DHT22;15134;48.768;9.184;2023-04-24T15:28:53;13.10;99.90
27741;DHT22;15134;48.768;9.184;2023-04-24T15:31:19;13.10;99.90
27741;DHT22;15134;48.768;9.184;2023-04-24T15:33:45;13.00;99.90
27741;DHT22;15134;48.768;9.184;2023-04-24T15:36:10;13.00;99.90
27741;DHT22;15134;48.768;9.184;2023-04-24T15:38:37;13.00;99.90
27741;DHT22;15134;48.768;9.184;2023-04-24T15:41:03;13.00;99.90
27741;DHT22;15134;48.768;9.184;2023-04-24T15:43:54;13.00;99.90
27741;DHT22;15134;48.768;9.184;2023-04-24T15:46:20;12.60;99.90
27741;DHT22;15134;48.768;9.184;2023-04-24T15:48:45;12.60;99.90
27741;DHT22;15134;48.768;9.184;2023-04-24T15:51:12;12.70;99.90
27741;DHT22;15134;48.768;9.184;2023-04-24T15:53:37;12.80;99.90
27741;DHT22;15134;48.768;9.184;2023-04-24T15:56:03;12.90;99.90
27741;DHT22;15134;48.768;9.184;2023-04-24T15:58:29;12.90;99.90